sensor_id;sensor_type;location;lat;lon;timestamp;P1;durP1;ratioP1;P2;durP2;ratioP2
23072;SDS011;67971;51.046;3.732;2023-05-16T00:00:30;20.70;;;4.00;;
23072;SDS011;67971;51.046;3.732;2023-05-16T00:02:59;24.03;;;5.07;;
23072;SDS011;67971;51.046;3.732;2023-05-16T00:05:27;32.23;;;5.80;;
23072;SDS011;67971;51.046;3.732;2023-05-16T00:07:52;26.83;;;5.40;;
23072;SDS011;67971;51.046;3.732;2023-05-16T00:10:18;25.33;;;5.93;;
23072;SDS011;67971;51.046;3.732;2023-05-16T00:12:44;25.60;;;6.13;;
23072;SDS011;67971;51.046;3.732;2023-05-16T00:15:14;29.53;;;6.23;;
23072;SDS011;67971;51.046;3.732;2023-05-16T00:17:39;23.43;;;6.00;;
23072;SDS011;67971;51.046;3.732;2023-05-16T00:20:07;19.97;;;5.53;;
23072;SDS011;67971;51.046;3.732;2023-05-16T00:22:35;27.17;;;5.90;;
23072;SDS011;67971;51.046;3.732;2023-05-16T00:25:01;18.93;;;5.27;;
23072;SDS011;67971;51.046;3.732;2023-05-16T00:27:28;29.70;;;5.30;;
23072;SDS011;67971;51.046;3.732;2023-05-16T00:29:54;21.30;;;4.93;;
23072;SDS011;67971;51.046;3.732;2023-05-16T00:32:20;24.80;;;5.17;;
23072;SDS011;67971;51.046;3.732;2023-05-16T00:34:45;20.97;;;5.27;;
23072;SDS011;67971;51.046;3.732;2023-05-16T00:37:11;26.80;;;5.43;;
23072;SDS011;67971;51.046;3.732;2023-05-16T00:39:37;20.37;;;4.60;;
23072;SDS011;67971;51.046;3.732;2023-05-16T00:42:03;21.93;;;5.10;;
23072;SDS011;67971;51.046;3.732;2023-05-16T00:44:29;28.43;;;5.93;;
23072;SDS011;67971;51.046;3.732;2023-05-16T00:46:55;29.20;;;5.13;;
23072;SDS011;67971;51.046;3.732;2023-05-16T00:49:22;28.77;;;5.57;;
23072;SDS011;67971;51.046;3.732;2023-05-16T00:51:48;22.47;;;6.57;;
23072;SDS011;67971;51.046;3.732;2023-05-16T00:54:14;20.83;;;5.73;;
23072;SDS011;67971;51.046;3.732;2023-05-16T00:56:40;24.73;;;5.80;;
23072;SDS011;67971;51.046;3.732;2023-05-16T00:59:05;19.00;;;5.73;;
23072;SDS011;67971;51.046;3.732;2023-05-16T01:01:31;20.10;;;5.63;;
23072;SDS011;67971;51.046;3.732;2023-05-16T01:03:59;32.30;;;5.87;;
23072;SDS011;67971;51.046;3.732;2023-05-16T01:06:25;23.83;;;6.00;;
23072;SDS011;67971;51.046;3.732;2023-05-16T01:08:50;22.67;;;4.70;;
23072;SDS011;67971;51.046;3.732;2023-05-16T01:16:46;22.67;;;5.70;;
23072;SDS011;67971;51.046;3.732;2023-05-16T01:21:48;22.40;;;5.83;;
23072;SDS011;67971;51.046;3.732;2023-05-16T01:27:31;26.33;;;6.67;;
23072;SDS011;67971;51.046;3.732;2023-05-16T01:29:58;26.30;;;5.80;;
23072;SDS011;67971;51.046;3.732;2023-05-16T01:32:24;27.37;;;6.73;;
23072;SDS011;67971;51.046;3.732;2023-05-16T01:34:50;22.50;;;6.93;;
23072;SDS011;67971;51.046;3.732;2023-05-16T01:37:31;23.67;;;6.57;;
23072;SDS011;67971;51.046;3.732;2023-05-16T01:40:02;22.83;;;6.07;;
23072;SDS011;67971;51.046;3.732;2023-05-16T01:42:34;24.90;;;5.53;;
23072;SDS011;67971;51.046;3.732;2023-05-16T01:47:51;28.50;;;5.83;;
23072;SDS011;67971;51.046;3.732;2023-05-16T01:50:29;24.90;;;5.67;;
23072;SDS011;67971;51.046;3.732;2023-05-16T01:58:04;31.20;;;5.20;;
23072;SDS011;67971;51.046;3.732;2023-05-16T02:00:32;24.00;;;5.30;;
23072;SDS011;67971;51.046;3.732;2023-05-16T02:02:58;27.93;;;5.03;;
23072;SDS011;67971;51.046;3.732;2023-05-16T02:05:24;30.80;;;6.37;;
23072;SDS011;67971;51.046;3.732;2023-05-16T02:07:50;26.10;;;4.97;;
23072;SDS011;67971;51.046;3.732;2023-05-16T02:10:16;25.90;;;5.40;;
23072;SDS011;67971;51.046;3.732;2023-05-16T02:12:41;22.43;;;5.20;;
23072;SDS011;67971;51.046;3.732;2023-05-16T02:15:07;27.73;;;5.40;;
23072;SDS011;67971;51.046;3.732;2023-05-16T02:17:34;18.40;;;5.23;;
23072;SDS011;67971;51.046;3.732;2023-05-16T02:19:59;27.10;;;5.63;;
23072;SDS011;67971;51.046;3.732;2023-05-16T02:22:30;20.93;;;6.00;;
23072;SDS011;67971;51.046;3.732;2023-05-16T02:25:00;23.13;;;5.27;;
23072;SDS011;67971;51.046;3.732;2023-05-16T02:27:27;20.37;;;4.90;;
23072;SDS011;67971;51.046;3.732;2023-05-16T02:29:55;24.23;;;5.50;;
23072;SDS011;67971;51.046;3.732;2023-05-16T02:32:21;23.90;;;5.63;;
23072;SDS011;67971;51.046;3.732;2023-05-16T02:34:47;29.10;;;5.30;;
23072;SDS011;67971;51.046;3.732;2023-05-16T02:37:13;23.17;;;4.37;;
23072;SDS011;67971;51.046;3.732;2023-05-16T02:39:39;31.67;;;5.17;;
23072;SDS011;67971;51.046;3.732;2023-05-16T02:42:05;20.50;;;4.13;;
23072;SDS011;67971;51.046;3.732;2023-05-16T02:44:31;18.67;;;4.87;;
23072;SDS011;67971;51.046;3.732;2023-05-16T02:46:57;18.53;;;5.43;;
23072;SDS011;67971;51.046;3.732;2023-05-16T02:49:23;21.07;;;5.53;;
23072;SDS011;67971;51.046;3.732;2023-05-16T02:51:49;20.37;;;4.97;;
23072;SDS011;67971;51.046;3.732;2023-05-16T02:54:15;23.53;;;5.17;;
23072;SDS011;67971;51.046;3.732;2023-05-16T02:56:41;22.77;;;5.10;;
23072;SDS011;67971;51.046;3.732;2023-05-16T02:59:07;16.47;;;5.13;;
23072;SDS011;67971;51.046;3.732;2023-05-16T03:01:33;21.03;;;5.07;;
23072;SDS011;67971;51.046;3.732;2023-05-16T03:03:59;30.83;;;5.50;;
23072;SDS011;67971;51.046;3.732;2023-05-16T03:06:24;26.27;;;5.10;;
23072;SDS011;67971;51.046;3.732;2023-05-16T03:08:50;25.83;;;5.27;;
23072;SDS011;67971;51.046;3.732;2023-05-16T03:11:16;20.30;;;4.80;;
23072;SDS011;67971;51.046;3.732;2023-05-16T03:13:47;21.87;;;5.23;;
23072;SDS011;67971;51.046;3.732;2023-05-16T03:16:13;26.23;;;4.90;;
23072;SDS011;67971;51.046;3.732;2023-05-16T03:18:39;20.20;;;4.83;;
23072;SDS011;67971;51.046;3.732;2023-05-16T03:21:05;15.50;;;4.63;;
23072;SDS011;67971;51.046;3.732;2023-05-16T03:23:31;22.20;;;4.83;;
23072;SDS011;67971;51.046;3.732;2023-05-16T03:25:57;26.50;;;4.87;;
23072;SDS011;67971;51.046;3.732;2023-05-16T03:28:22;23.33;;;5.70;;
23072;SDS011;67971;51.046;3.732;2023-05-16T03:30:48;21.13;;;5.30;;
23072;SDS011;67971;51.046;3.732;2023-05-16T03:33:14;29.90;;;4.83;;
23072;SDS011;67971;51.046;3.732;2023-05-16T03:35:40;18.07;;;3.87;;
23072;SDS011;67971;51.046;3.732;2023-05-16T03:38:06;18.73;;;4.80;;
23072;SDS011;67971;51.046;3.732;2023-05-16T03:40:32;16.57;;;3.53;;
23072;SDS011;67971;51.046;3.732;2023-05-16T03:42:57;19.07;;;3.93;;
23072;SDS011;67971;51.046;3.732;2023-05-16T03:45:23;16.60;;;4.53;;
23072;SDS011;67971;51.046;3.732;2023-05-16T03:47:49;20.97;;;4.73;;
23072;SDS011;67971;51.046;3.732;2023-05-16T03:50:15;21.47;;;4.53;;
23072;SDS011;67971;51.046;3.732;2023-05-16T03:52:41;23.73;;;4.73;;
23072;SDS011;67971;51.046;3.732;2023-05-16T03:55:07;18.93;;;5.40;;
23072;SDS011;67971;51.046;3.732;2023-05-16T03:57:33;20.80;;;4.43;;
23072;SDS011;67971;51.046;3.732;2023-05-16T04:00:00;16.53;;;4.50;;
23072;SDS011;67971;51.046;3.732;2023-05-16T04:02:30;21.97;;;4.10;;
23072;SDS011;67971;51.046;3.732;2023-05-16T04:04:56;15.57;;;4.80;;
23072;SDS011;67971;51.046;3.732;2023-05-16T04:07:23;20.57;;;4.63;;
23072;SDS011;67971;51.046;3.732;2023-05-16T04:09:50;22.00;;;4.03;;
23072;SDS011;67971;51.046;3.732;2023-05-16T04:12:16;17.97;;;4.50;;
23072;SDS011;67971;51.046;3.732;2023-05-16T04:14:42;19.43;;;3.93;;
23072;SDS011;67971;51.046;3.732;2023-05-16T04:17:07;30.27;;;5.80;;
23072;SDS011;67971;51.046;3.732;2023-05-16T04:19:34;25.73;;;5.53;;
23072;SDS011;67971;51.046;3.732;2023-05-16T04:22:00;21.70;;;5.40;;
23072;SDS011;67971;51.046;3.732;2023-05-16T04:24:25;28.33;;;5.87;;
23072;SDS011;67971;51.046;3.732;2023-05-16T04:26:53;23.30;;;6.00;;
23072;SDS011;67971;51.046;3.732;2023-05-16T04:29:19;16.20;;;5.83;;
23072;SDS011;67971;51.046;3.732;2023-05-16T04:31:45;27.70;;;6.47;;
23072;SDS011;67971;51.046;3.732;2023-05-16T04:34:11;29.23;;;6.70;;
23072;SDS011;67971;51.046;3.732;2023-05-16T04:36:37;19.77;;;5.33;;
23072;SDS011;67971;51.046;3.732;2023-05-16T04:39:03;23.90;;;6.83;;
23072;SDS011;67971;51.046;3.732;2023-05-16T04:41:28;20.53;;;5.87;;
23072;SDS011;67971;51.046;3.732;2023-05-16T04:43:54;29.00;;;5.53;;
23072;SDS011;67971;51.046;3.732;2023-05-16T04:46:20;28.93;;;6.53;;
23072;SDS011;67971;51.046;3.732;2023-05-16T04:48:46;26.17;;;6.07;;
23072;SDS011;67971;51.046;3.732;2023-05-16T04:51:11;29.47;;;6.40;;
23072;SDS011;67971;51.046;3.732;2023-05-16T04:53:37;23.37;;;5.27;;
23072;SDS011;67971;51.046;3.732;2023-05-16T04:56:02;22.40;;;5.87;;
23072;SDS011;67971;51.046;3.732;2023-05-16T04:58:30;28.47;;;5.37;;
23072;SDS011;67971;51.046;3.732;2023-05-16T05:00:56;28.60;;;6.30;;
23072;SDS011;67971;51.046;3.732;2023-05-16T05:03:22;30.87;;;6.00;;
23072;SDS011;67971;51.046;3.732;2023-05-16T05:05:48;29.50;;;5.23;;
23072;SDS011;67971;51.046;3.732;2023-05-16T05:08:13;21.43;;;5.30;;
23072;SDS011;67971;51.046;3.732;2023-05-16T05:10:40;24.63;;;6.20;;
23072;SDS011;67971;51.046;3.732;2023-05-16T05:13:06;22.53;;;4.93;;
23072;SDS011;67971;51.046;3.732;2023-05-16T05:15:32;29.43;;;5.37;;
23072;SDS011;67971;51.046;3.732;2023-05-16T05:17:57;26.37;;;4.40;;
23072;SDS011;67971;51.046;3.732;2023-05-16T05:20:23;25.30;;;4.80;;
23072;SDS011;67971;51.046;3.732;2023-05-16T05:22:51;26.37;;;4.33;;
23072;SDS011;67971;51.046;3.732;2023-05-16T05:25:16;21.70;;;5.43;;
23072;SDS011;67971;51.046;3.732;2023-05-16T05:27:42;18.67;;;4.87;;
23072;SDS011;67971;51.046;3.732;2023-05-16T05:30:08;29.20;;;6.07;;
23072;SDS011;67971;51.046;3.732;2023-05-16T05:32:34;32.37;;;5.73;;
23072;SDS011;67971;51.046;3.732;2023-05-16T05:35:00;22.07;;;5.50;;
23072;SDS011;67971;51.046;3.732;2023-05-16T05:37:25;27.80;;;6.47;;
23072;SDS011;67971;51.046;3.732;2023-05-16T05:39:51;31.73;;;6.00;;
23072;SDS011;67971;51.046;3.732;2023-05-16T05:42:16;25.13;;;5.57;;
23072;SDS011;67971;51.046;3.732;2023-05-16T05:44:42;29.53;;;5.10;;
23072;SDS011;67971;51.046;3.732;2023-05-16T05:47:08;22.17;;;4.53;;
23072;SDS011;67971;51.046;3.732;2023-05-16T05:49:33;34.23;;;6.07;;
23072;SDS011;67971;51.046;3.732;2023-05-16T05:52:00;37.33;;;6.27;;
23072;SDS011;67971;51.046;3.732;2023-05-16T05:54:26;35.43;;;6.00;;
23072;SDS011;67971;51.046;3.732;2023-05-16T05:56:51;30.23;;;5.70;;
23072;SDS011;67971;51.046;3.732;2023-05-16T05:59:17;41.30;;;5.93;;
23072;SDS011;67971;51.046;3.732;2023-05-16T06:01:43;31.77;;;4.87;;
23072;SDS011;67971;51.046;3.732;2023-05-16T06:04:09;31.20;;;4.63;;
23072;SDS011;67971;51.046;3.732;2023-05-16T06:06:35;24.33;;;4.20;;
23072;SDS011;67971;51.046;3.732;2023-05-16T06:09:01;25.93;;;4.83;;
23072;SDS011;67971;51.046;3.732;2023-05-16T06:11:27;26.40;;;4.87;;
23072;SDS011;67971;51.046;3.732;2023-05-16T06:13:53;16.90;;;3.83;;
23072;SDS011;67971;51.046;3.732;2023-05-16T06:16:22;25.47;;;3.57;;
23072;SDS011;67971;51.046;3.732;2023-05-16T06:18:49;25.20;;;3.20;;
23072;SDS011;67971;51.046;3.732;2023-05-16T06:21:15;20.07;;;2.70;;
23072;SDS011;67971;51.046;3.732;2023-05-16T06:23:41;16.50;;;3.47;;
23072;SDS011;67971;51.046;3.732;2023-05-16T06:26:06;21.67;;;3.63;;
23072;SDS011;67971;51.046;3.732;2023-05-16T06:28:32;21.77;;;3.20;;
23072;SDS011;67971;51.046;3.732;2023-05-16T06:30:58;19.60;;;4.53;;
23072;SDS011;67971;51.046;3.732;2023-05-16T06:33:24;18.40;;;3.50;;
23072;SDS011;67971;51.046;3.732;2023-05-16T06:35:50;23.20;;;4.00;;
23072;SDS011;67971;51.046;3.732;2023-05-16T06:38:17;27.97;;;4.87;;
23072;SDS011;67971;51.046;3.732;2023-05-16T06:40:46;14.70;;;3.00;;
23072;SDS011;67971;51.046;3.732;2023-05-16T06:43:12;25.87;;;3.90;;
23072;SDS011;67971;51.046;3.732;2023-05-16T06:45:37;14.67;;;3.20;;
23072;SDS011;67971;51.046;3.732;2023-05-16T06:48:03;24.33;;;3.93;;
23072;SDS011;67971;51.046;3.732;2023-05-16T06:50:31;11.80;;;2.20;;
23072;SDS011;67971;51.046;3.732;2023-05-16T06:53:00;19.63;;;2.60;;
23072;SDS011;67971;51.046;3.732;2023-05-16T06:55:25;19.87;;;2.93;;
23072;SDS011;67971;51.046;3.732;2023-05-16T06:57:51;16.10;;;2.70;;
23072;SDS011;67971;51.046;3.732;2023-05-16T07:00:17;22.20;;;3.78;;
23072;SDS011;67971;51.046;3.732;2023-05-16T07:02:43;22.80;;;2.83;;
23072;SDS011;67971;51.046;3.732;2023-05-16T07:05:09;16.05;;;3.45;;
23072;SDS011;67971;51.046;3.732;2023-05-16T07:07:34;17.95;;;2.72;;
23072;SDS011;67971;51.046;3.732;2023-05-16T07:10:00;21.53;;;2.97;;
23072;SDS011;67971;51.046;3.732;2023-05-16T07:12:27;20.23;;;3.03;;
23072;SDS011;67971;51.046;3.732;2023-05-16T07:14:52;18.25;;;3.55;;
23072;SDS011;67971;51.046;3.732;2023-05-16T07:17:18;16.13;;;3.60;;
23072;SDS011;67971;51.046;3.732;2023-05-16T07:19:44;17.77;;;4.63;;
23072;SDS011;67971;51.046;3.732;2023-05-16T07:22:10;12.05;;;3.78;;
23072;SDS011;67971;51.046;3.732;2023-05-16T07:24:36;14.38;;;3.60;;
23072;SDS011;67971;51.046;3.732;2023-05-16T07:27:02;13.98;;;3.90;;
23072;SDS011;67971;51.046;3.732;2023-05-16T07:29:27;13.90;;;3.10;;
23072;SDS011;67971;51.046;3.732;2023-05-16T07:31:54;19.25;;;2.72;;
23072;SDS011;67971;51.046;3.732;2023-05-16T07:34:20;11.48;;;2.13;;
23072;SDS011;67971;51.046;3.732;2023-05-16T07:36:46;12.07;;;2.50;;
23072;SDS011;67971;51.046;3.732;2023-05-16T07:39:11;19.30;;;2.65;;
23072;SDS011;67971;51.046;3.732;2023-05-16T07:41:37;13.02;;;2.50;;
23072;SDS011;67971;51.046;3.732;2023-05-16T07:44:03;22.65;;;3.20;;
23072;SDS011;67971;51.046;3.732;2023-05-16T07:46:28;15.05;;;2.97;;
23072;SDS011;67971;51.046;3.732;2023-05-16T07:48:54;17.17;;;2.88;;
23072;SDS011;67971;51.046;3.732;2023-05-16T07:51:20;20.77;;;3.25;;
23072;SDS011;67971;51.046;3.732;2023-05-16T07:53:46;17.17;;;2.70;;
23072;SDS011;67971;51.046;3.732;2023-05-16T07:56:12;12.65;;;3.20;;
23072;SDS011;67971;51.046;3.732;2023-05-16T07:58:38;9.27;;;2.40;;
23072;SDS011;67971;51.046;3.732;2023-05-16T08:01:03;16.30;;;2.15;;
23072;SDS011;67971;51.046;3.732;2023-05-16T08:03:29;12.02;;;2.35;;
23072;SDS011;67971;51.046;3.732;2023-05-16T08:05:55;16.27;;;2.20;;
23072;SDS011;67971;51.046;3.732;2023-05-16T08:08:21;10.05;;;2.25;;
23072;SDS011;67971;51.046;3.732;2023-05-16T08:10:46;12.75;;;2.53;;
23072;SDS011;67971;51.046;3.732;2023-05-16T08:13:12;14.43;;;2.38;;
23072;SDS011;67971;51.046;3.732;2023-05-16T08:15:38;8.85;;;1.70;;
23072;SDS011;67971;51.046;3.732;2023-05-16T08:18:03;15.20;;;2.78;;
23072;SDS011;67971;51.046;3.732;2023-05-16T08:20:40;11.68;;;2.55;;
23072;SDS011;67971;51.046;3.732;2023-05-16T08:23:06;5.72;;;1.63;;
23072;SDS011;67971;51.046;3.732;2023-05-16T08:25:32;11.80;;;2.10;;
23072;SDS011;67971;51.046;3.732;2023-05-16T08:27:59;14.32;;;3.75;;
23072;SDS011;67971;51.046;3.732;2023-05-16T08:30:28;14.13;;;2.58;;
23072;SDS011;67971;51.046;3.732;2023-05-16T08:32:54;14.95;;;2.38;;
23072;SDS011;67971;51.046;3.732;2023-05-16T08:35:20;11.80;;;2.20;;
23072;SDS011;67971;51.046;3.732;2023-05-16T08:37:45;10.43;;;1.90;;
23072;SDS011;67971;51.046;3.732;2023-05-16T08:40:11;7.63;;;1.40;;
23072;SDS011;67971;51.046;3.732;2023-05-16T08:42:38;9.82;;;1.92;;
23072;SDS011;67971;51.046;3.732;2023-05-16T08:45:05;7.03;;;2.20;;
23072;SDS011;67971;51.046;3.732;2023-05-16T08:47:31;7.45;;;2.28;;
23072;SDS011;67971;51.046;3.732;2023-05-16T08:49:58;6.95;;;1.80;;
23072;SDS011;67971;51.046;3.732;2023-05-16T08:52:26;10.77;;;2.25;;
23072;SDS011;67971;51.046;3.732;2023-05-16T08:54:58;9.45;;;1.88;;
23072;SDS011;67971;51.046;3.732;2023-05-16T08:57:29;8.45;;;1.90;;
23072;SDS011;67971;51.046;3.732;2023-05-16T08:59:56;11.68;;;1.85;;
23072;SDS011;67971;51.046;3.732;2023-05-16T09:02:23;6.00;;;2.08;;
23072;SDS011;67971;51.046;3.732;2023-05-16T09:04:49;15.98;;;2.65;;
23072;SDS011;67971;51.046;3.732;2023-05-16T09:07:14;11.85;;;1.92;;
23072;SDS011;67971;51.046;3.732;2023-05-16T09:09:41;12.40;;;2.17;;
23072;SDS011;67971;51.046;3.732;2023-05-16T09:12:07;10.32;;;2.00;;
23072;SDS011;67971;51.046;3.732;2023-05-16T09:14:33;15.32;;;3.13;;
23072;SDS011;67971;51.046;3.732;2023-05-16T09:17:07;18.75;;;5.00;;
23072;SDS011;67971;51.046;3.732;2023-05-16T09:19:39;9.02;;;1.90;;
23072;SDS011;67971;51.046;3.732;2023-05-16T09:22:13;17.27;;;2.90;;
23072;SDS011;67971;51.046;3.732;2023-05-16T09:24:42;10.23;;;1.92;;
23072;SDS011;67971;51.046;3.732;2023-05-16T09:27:09;14.50;;;2.45;;
23072;SDS011;67971;51.046;3.732;2023-05-16T09:29:39;11.27;;;2.00;;
23072;SDS011;67971;51.046;3.732;2023-05-16T09:34:47;13.10;;;2.05;;
23072;SDS011;67971;51.046;3.732;2023-05-16T09:37:14;10.93;;;2.17;;
23072;SDS011;67971;51.046;3.732;2023-05-16T09:39:47;9.23;;;1.85;;
23072;SDS011;67971;51.046;3.732;2023-05-16T09:42:14;12.40;;;1.73;;
23072;SDS011;67971;51.046;3.732;2023-05-16T09:44:51;11.50;;;2.40;;
23072;SDS011;67971;51.046;3.732;2023-05-16T09:47:18;12.95;;;2.40;;
23072;SDS011;67971;51.046;3.732;2023-05-16T09:49:45;7.60;;;2.20;;
23072;SDS011;67971;51.046;3.732;2023-05-16T09:52:13;7.13;;;1.75;;
23072;SDS011;67971;51.046;3.732;2023-05-16T09:54:39;9.25;;;1.77;;
23072;SDS011;67971;51.046;3.732;2023-05-16T09:57:05;5.28;;;1.33;;
23072;SDS011;67971;51.046;3.732;2023-05-16T09:59:38;12.25;;;1.95;;
23072;SDS011;67971;51.046;3.732;2023-05-16T10:02:05;11.50;;;1.95;;
23072;SDS011;67971;51.046;3.732;2023-05-16T10:04:34;11.95;;;2.40;;
23072;SDS011;67971;51.046;3.732;2023-05-16T10:07:01;10.23;;;2.15;;
23072;SDS011;67971;51.046;3.732;2023-05-16T10:09:33;15.65;;;1.98;;
23072;SDS011;67971;51.046;3.732;2023-05-16T10:12:00;17.08;;;2.28;;
23072;SDS011;67971;51.046;3.732;2023-05-16T10:14:34;7.82;;;1.83;;
23072;SDS011;67971;51.046;3.732;2023-05-16T10:17:05;11.45;;;2.60;;
23072;SDS011;67971;51.046;3.732;2023-05-16T10:19:33;13.27;;;2.50;;
23072;SDS011;67971;51.046;3.732;2023-05-16T10:22:03;10.90;;;2.25;;
23072;SDS011;67971;51.046;3.732;2023-05-16T10:24:35;13.00;;;2.50;;
23072;SDS011;67971;51.046;3.732;2023-05-16T10:27:12;16.42;;;3.08;;
23072;SDS011;67971;51.046;3.732;2023-05-16T10:29:39;17.35;;;3.20;;
23072;SDS011;67971;51.046;3.732;2023-05-16T10:32:06;7.93;;;2.40;;
23072;SDS011;67971;51.046;3.732;2023-05-16T10:34:33;16.05;;;2.80;;
23072;SDS011;67971;51.046;3.732;2023-05-16T10:36:59;10.50;;;2.35;;
23072;SDS011;67971;51.046;3.732;2023-05-16T10:39:25;12.10;;;2.63;;
23072;SDS011;67971;51.046;3.732;2023-05-16T10:41:52;14.05;;;2.50;;
23072;SDS011;67971;51.046;3.732;2023-05-16T10:44:19;10.80;;;1.98;;
23072;SDS011;67971;51.046;3.732;2023-05-16T10:46:45;12.85;;;2.63;;
23072;SDS011;67971;51.046;3.732;2023-05-16T10:49:25;8.25;;;1.77;;
23072;SDS011;67971;51.046;3.732;2023-05-16T10:52:01;5.28;;;1.58;;
23072;SDS011;67971;51.046;3.732;2023-05-16T10:54:36;7.13;;;2.00;;
23072;SDS011;67971;51.046;3.732;2023-05-16T10:57:04;8.85;;;2.42;;
23072;SDS011;67971;51.046;3.732;2023-05-16T10:59:39;15.63;;;2.50;;
23072;SDS011;67971;51.046;3.732;2023-05-16T11:04:54;14.18;;;2.17;;
23072;SDS011;67971;51.046;3.732;2023-05-16T11:07:23;6.07;;;1.83;;
23072;SDS011;67971;51.046;3.732;2023-05-16T11:12:42;15.73;;;3.17;;
23072;SDS011;67971;51.046;3.732;2023-05-16T11:15:19;12.52;;;3.35;;
23072;SDS011;67971;51.046;3.732;2023-05-16T11:17:45;11.30;;;2.88;;
23072;SDS011;67971;51.046;3.732;2023-05-16T11:20:31;8.02;;;1.83;;
23072;SDS011;67971;51.046;3.732;2023-05-16T11:23:17;8.60;;;1.80;;
23072;SDS011;67971;51.046;3.732;2023-05-16T11:25:45;11.88;;;2.70;;
23072;SDS011;67971;51.046;3.732;2023-05-16T11:28:14;8.85;;;2.10;;
23072;SDS011;67971;51.046;3.732;2023-05-16T11:30:44;8.38;;;2.20;;
23072;SDS011;67971;51.046;3.732;2023-05-16T11:33:14;6.30;;;1.85;;
23072;SDS011;67971;51.046;3.732;2023-05-16T11:35:40;14.95;;;2.20;;
23072;SDS011;67971;51.046;3.732;2023-05-16T11:38:14;14.43;;;2.40;;
23072;SDS011;67971;51.046;3.732;2023-05-16T11:40:42;13.02;;;3.60;;
23072;SDS011;67971;51.046;3.732;2023-05-16T11:43:09;17.02;;;2.95;;
23072;SDS011;67971;51.046;3.732;2023-05-16T11:45:43;11.80;;;2.30;;
23072;SDS011;67971;51.046;3.732;2023-05-16T11:48:09;11.27;;;2.30;;
23072;SDS011;67971;51.046;3.732;2023-05-16T11:50:35;6.35;;;1.92;;
23072;SDS011;67971;51.046;3.732;2023-05-16T11:53:01;8.10;;;1.70;;
23072;SDS011;67971;51.046;3.732;2023-05-16T11:55:27;8.30;;;1.83;;
23072;SDS011;67971;51.046;3.732;2023-05-16T11:57:55;9.73;;;1.95;;
23072;SDS011;67971;51.046;3.732;2023-05-16T12:00:23;7.55;;;2.40;;
23072;SDS011;67971;51.046;3.732;2023-05-16T12:02:50;6.35;;;1.60;;
23072;SDS011;67971;51.046;3.732;2023-05-16T12:05:17;7.70;;;1.95;;
23072;SDS011;67971;51.046;3.732;2023-05-16T12:07:46;9.23;;;2.30;;
23072;SDS011;67971;51.046;3.732;2023-05-16T12:10:14;9.23;;;1.85;;
23072;SDS011;67971;51.046;3.732;2023-05-16T12:12:41;9.95;;;1.58;;
23072;SDS011;67971;51.046;3.732;2023-05-16T12:15:11;12.40;;;2.90;;
23072;SDS011;67971;51.046;3.732;2023-05-16T12:17:38;10.20;;;2.33;;
23072;SDS011;67971;51.046;3.732;2023-05-16T12:20:05;13.73;;;2.17;;
23072;SDS011;67971;51.046;3.732;2023-05-16T12:22:39;12.65;;;2.05;;
23072;SDS011;67971;51.046;3.732;2023-05-16T12:27:54;11.77;;;1.45;;
23072;SDS011;67971;51.046;3.732;2023-05-16T12:30:22;14.05;;;2.08;;
23072;SDS011;67971;51.046;3.732;2023-05-16T12:32:56;14.50;;;2.50;;
23072;SDS011;67971;51.046;3.732;2023-05-16T12:35:36;15.05;;;2.50;;
23072;SDS011;67971;51.046;3.732;2023-05-16T12:38:06;12.18;;;2.03;;
23072;SDS011;67971;51.046;3.732;2023-05-16T12:40:37;16.10;;;2.50;;
23072;SDS011;67971;51.046;3.732;2023-05-16T12:43:24;13.25;;;2.70;;
23072;SDS011;67971;51.046;3.732;2023-05-16T12:45:56;9.88;;;1.85;;
23072;SDS011;67971;51.046;3.732;2023-05-16T12:48:22;5.85;;;1.63;;
23072;SDS011;67971;51.046;3.732;2023-05-16T12:50:54;12.82;;;1.83;;
23072;SDS011;67971;51.046;3.732;2023-05-16T12:53:20;7.60;;;1.60;;
23072;SDS011;67971;51.046;3.732;2023-05-16T12:55:45;12.60;;;2.30;;
23072;SDS011;67971;51.046;3.732;2023-05-16T12:58:11;6.65;;;1.95;;
23072;SDS011;67971;51.046;3.732;2023-05-16T13:00:37;14.98;;;2.35;;
23072;SDS011;67971;51.046;3.732;2023-05-16T13:03:06;10.00;;;1.98;;
23072;SDS011;67971;51.046;3.732;2023-05-16T13:05:31;12.65;;;2.53;;
23072;SDS011;67971;51.046;3.732;2023-05-16T13:07:57;9.27;;;2.08;;
23072;SDS011;67971;51.046;3.732;2023-05-16T13:10:23;13.60;;;2.30;;
23072;SDS011;67971;51.046;3.732;2023-05-16T13:12:50;11.00;;;1.88;;
23072;SDS011;67971;51.046;3.732;2023-05-16T13:15:16;12.52;;;1.50;;
23072;SDS011;67971;51.046;3.732;2023-05-16T13:17:42;12.05;;;1.95;;
23072;SDS011;67971;51.046;3.732;2023-05-16T13:20:08;7.75;;;1.85;;
23072;SDS011;67971;51.046;3.732;2023-05-16T13:22:40;5.68;;;1.55;;
23072;SDS011;67971;51.046;3.732;2023-05-16T13:25:06;18.08;;;2.17;;
23072;SDS011;67971;51.046;3.732;2023-05-16T13:27:33;9.35;;;1.83;;
23072;SDS011;67971;51.046;3.732;2023-05-16T13:29:59;6.60;;;1.38;;
23072;SDS011;67971;51.046;3.732;2023-05-16T13:32:24;11.00;;;2.15;;
23072;SDS011;67971;51.046;3.732;2023-05-16T13:34:51;10.57;;;1.73;;
23072;SDS011;67971;51.046;3.732;2023-05-16T13:37:17;10.05;;;2.05;;
23072;SDS011;67971;51.046;3.732;2023-05-16T13:39:43;15.00;;;1.75;;
23072;SDS011;67971;51.046;3.732;2023-05-16T13:42:09;10.68;;;1.85;;
23072;SDS011;67971;51.046;3.732;2023-05-16T13:44:35;6.25;;;1.50;;
23072;SDS011;67971;51.046;3.732;2023-05-16T13:47:01;11.32;;;1.92;;
23072;SDS011;67971;51.046;3.732;2023-05-16T13:49:27;11.75;;;1.90;;
23072;SDS011;67971;51.046;3.732;2023-05-16T13:51:53;15.00;;;1.80;;
23072;SDS011;67971;51.046;3.732;2023-05-16T13:54:19;10.18;;;1.85;;
23072;SDS011;67971;51.046;3.732;2023-05-16T13:56:46;14.90;;;1.88;;
23072;SDS011;67971;51.046;3.732;2023-05-16T13:59:12;8.32;;;1.25;;
23072;SDS011;67971;51.046;3.732;2023-05-16T14:01:38;11.85;;;2.22;;
23072;SDS011;67971;51.046;3.732;2023-05-16T14:04:04;8.10;;;1.95;;
23072;SDS011;67971;51.046;3.732;2023-05-16T14:06:30;9.70;;;1.45;;
23072;SDS011;67971;51.046;3.732;2023-05-16T14:08:55;10.55;;;1.35;;
23072;SDS011;67971;51.046;3.732;2023-05-16T14:11:21;6.38;;;1.95;;
23072;SDS011;67971;51.046;3.732;2023-05-16T14:13:51;7.63;;;1.80;;
23072;SDS011;67971;51.046;3.732;2023-05-16T14:16:20;4.20;;;1.30;;
23072;SDS011;67971;51.046;3.732;2023-05-16T14:18:46;11.27;;;1.88;;
23072;SDS011;67971;51.046;3.732;2023-05-16T14:21:11;10.82;;;1.45;;
23072;SDS011;67971;51.046;3.732;2023-05-16T14:23:37;7.00;;;1.70;;
23072;SDS011;67971;51.046;3.732;2023-05-16T14:26:04;5.25;;;1.40;;
23072;SDS011;67971;51.046;3.732;2023-05-16T14:28:30;4.07;;;1.30;;
23072;SDS011;67971;51.046;3.732;2023-05-16T14:30:57;8.50;;;1.48;;
23072;SDS011;67971;51.046;3.732;2023-05-16T14:33:26;3.15;;;1.20;;
23072;SDS011;67971;51.046;3.732;2023-05-16T14:35:52;5.72;;;1.30;;
23072;SDS011;67971;51.046;3.732;2023-05-16T14:38:18;3.90;;;1.20;;
23072;SDS011;67971;51.046;3.732;2023-05-16T14:40:44;5.57;;;1.38;;
23072;SDS011;67971;51.046;3.732;2023-05-16T14:43:11;5.72;;;1.52;;
23072;SDS011;67971;51.046;3.732;2023-05-16T14:45:37;5.20;;;1.70;;
23072;SDS011;67971;51.046;3.732;2023-05-16T14:48:04;7.63;;;1.77;;
23072;SDS011;67971;51.046;3.732;2023-05-16T14:50:31;7.40;;;1.35;;
23072;SDS011;67971;51.046;3.732;2023-05-16T14:52:57;6.90;;;1.92;;
23072;SDS011;67971;51.046;3.732;2023-05-16T14:55:22;7.18;;;1.30;;
23072;SDS011;67971;51.046;3.732;2023-05-16T14:57:48;9.05;;;1.40;;
23072;SDS011;67971;51.046;3.732;2023-05-16T15:00:14;6.25;;;1.05;;
23072;SDS011;67971;51.046;3.732;2023-05-16T15:02:43;6.20;;;1.38;;
23072;SDS011;67971;51.046;3.732;2023-05-16T15:05:10;3.40;;;1.25;;
23072;SDS011;67971;51.046;3.732;2023-05-16T15:07:35;2.88;;;1.10;;